sensor_id;sensor_type;location;lat;lon;timestamp;P1;durP1;ratioP1;P2;durP2;ratioP2
46415;SDS011;32620;51.704;7.822;2023-06-22T00:00:01;9.77;;;7.90;;
46415;SDS011;32620;51.704;7.822;2023-06-22T00:02:33;9.77;;;7.72;;
46415;SDS011;32620;51.704;7.822;2023-06-22T00:04:58;9.35;;;8.40;;
46415;SDS011;32620;51.704;7.822;2023-06-22T00:07:24;11.40;;;7.95;;
46415;SDS011;32620;51.704;7.822;2023-06-22T00:09:49;10.93;;;7.88;;
46415;SDS011;32620;51.704;7.822;2023-06-22T00:12:15;8.60;;;7.70;;
46415;SDS011;32620;51.704;7.822;2023-06-22T00:14:40;11.88;;;8.43;;
46415;SDS011;32620;51.704;7.822;2023-06-22T00:17:06;13.05;;;9.45;;
46415;SDS011;32620;51.704;7.822;2023-06-22T00:19:32;10.48;;;9.35;;
46415;SDS011;32620;51.704;7.822;2023-06-22T00:22:00;12.00;;;9.70;;
46415;SDS011;32620;51.704;7.822;2023-06-22T00:24:28;10.60;;;9.20;;
46415;SDS011;32620;51.704;7.822;2023-06-22T00:26:53;11.77;;;9.48;;
46415;SDS011;32620;51.704;7.822;2023-06-22T00:29:19;14.80;;;9.93;;
46415;SDS011;32620;51.704;7.822;2023-06-22T00:31:45;11.05;;;8.70;;
46415;SDS011;32620;51.704;7.822;2023-06-22T00:34:10;13.45;;;9.73;;
46415;SDS011;32620;51.704;7.822;2023-06-22T00:36:36;12.05;;;7.68;;
46415;SDS011;32620;51.704;7.822;2023-06-22T00:39:01;12.98;;;10.10;;
46415;SDS011;32620;51.704;7.822;2023-06-22T00:41:27;11.52;;;10.15;;
46415;SDS011;32620;51.704;7.822;2023-06-22T00:43:54;16.23;;;11.00;;
46415;SDS011;32620;51.704;7.822;2023-06-22T00:46:20;13.00;;;11.32;;
46415;SDS011;32620;51.704;7.822;2023-06-22T00:48:47;12.75;;;8.63;;
46415;SDS011;32620;51.704;7.822;2023-06-22T00:51:13;11.43;;;9.50;;
46415;SDS011;32620;51.704;7.822;2023-06-22T00:53:39;10.20;;;8.60;;
46415;SDS011;32620;51.704;7.822;2023-06-22T00:56:06;11.02;;;8.88;;
46415;SDS011;32620;51.704;7.822;2023-06-22T00:58:33;12.52;;;9.65;;
46415;SDS011;32620;51.704;7.822;2023-06-22T01:01:00;14.25;;;9.85;;
46415;SDS011;32620;51.704;7.822;2023-06-22T01:03:27;12.05;;;8.95;;
46415;SDS011;32620;51.704;7.822;2023-06-22T01:05:53;11.80;;;8.75;;
46415;SDS011;32620;51.704;7.822;2023-06-22T01:08:44;9.70;;;8.27;;
46415;SDS011;32620;51.704;7.822;2023-06-22T01:11:18;11.70;;;10.48;;
46415;SDS011;32620;51.704;7.822;2023-06-22T01:13:52;17.17;;;11.60;;
46415;SDS011;32620;51.704;7.822;2023-06-22T01:16:40;13.20;;;10.77;;
46415;SDS011;32620;51.704;7.822;2023-06-22T01:19:17;13.40;;;10.18;;
46415;SDS011;32620;51.704;7.822;2023-06-22T01:22:06;11.07;;;8.80;;
46415;SDS011;32620;51.704;7.822;2023-06-22T01:24:42;9.82;;;8.73;;
46415;SDS011;32620;51.704;7.822;2023-06-22T01:27:20;10.98;;;9.20;;
46415;SDS011;32620;51.704;7.822;2023-06-22T01:30:10;13.55;;;10.13;;
46415;SDS011;32620;51.704;7.822;2023-06-22T01:32:39;10.93;;;9.50;;
46415;SDS011;32620;51.704;7.822;2023-06-22T01:35:06;9.90;;;8.90;;
46415;SDS011;32620;51.704;7.822;2023-06-22T01:37:34;15.00;;;13.07;;
46415;SDS011;32620;51.704;7.822;2023-06-22T01:40:00;17.40;;;13.40;;
46415;SDS011;32620;51.704;7.822;2023-06-22T01:42:29;17.67;;;13.95;;
46415;SDS011;32620;51.704;7.822;2023-06-22T01:44:55;15.75;;;13.82;;
46415;SDS011;32620;51.704;7.822;2023-06-22T01:47:21;19.00;;;14.15;;
46415;SDS011;32620;51.704;7.822;2023-06-22T01:49:47;14.00;;;12.40;;
46415;SDS011;32620;51.704;7.822;2023-06-22T01:52:14;13.90;;;11.20;;
46415;SDS011;32620;51.704;7.822;2023-06-22T01:54:41;14.50;;;11.65;;
46415;SDS011;32620;51.704;7.822;2023-06-22T01:57:07;17.27;;;13.45;;
46415;SDS011;32620;51.704;7.822;2023-06-22T01:59:37;14.15;;;12.63;;
46415;SDS011;32620;51.704;7.822;2023-06-22T02:02:11;12.32;;;10.20;;
46415;SDS011;32620;51.704;7.822;2023-06-22T02:04:48;13.52;;;11.95;;
46415;SDS011;32620;51.704;7.822;2023-06-22T02:07:30;16.20;;;12.20;;
46415;SDS011;32620;51.704;7.822;2023-06-22T02:09:59;15.00;;;12.50;;
46415;SDS011;32620;51.704;7.822;2023-06-22T02:12:26;13.07;;;11.52;;
46415;SDS011;32620;51.704;7.822;2023-06-22T02:14:54;12.25;;;10.95;;
46415;SDS011;32620;51.704;7.822;2023-06-22T02:17:20;15.07;;;11.60;;
46415;SDS011;32620;51.704;7.822;2023-06-22T02:19:46;14.57;;;11.73;;
46415;SDS011;32620;51.704;7.822;2023-06-22T02:22:11;17.33;;;12.55;;
46415;SDS011;32620;51.704;7.822;2023-06-22T02:24:38;15.45;;;12.43;;
46415;SDS011;32620;51.704;7.822;2023-06-22T02:27:04;14.45;;;12.75;;
46415;SDS011;32620;51.704;7.822;2023-06-22T02:29:32;18.88;;;13.15;;
46415;SDS011;32620;51.704;7.822;2023-06-22T02:31:57;17.58;;;14.00;;
46415;SDS011;32620;51.704;7.822;2023-06-22T02:34:23;14.52;;;12.48;;
46415;SDS011;32620;51.704;7.822;2023-06-22T02:36:50;15.77;;;14.07;;
46415;SDS011;32620;51.704;7.822;2023-06-22T02:39:18;19.75;;;14.65;;
46415;SDS011;32620;51.704;7.822;2023-06-22T02:41:45;14.75;;;13.13;;
46415;SDS011;32620;51.704;7.822;2023-06-22T02:44:11;17.17;;;13.20;;
46415;SDS011;32620;51.704;7.822;2023-06-22T02:46:36;14.52;;;12.95;;
46415;SDS011;32620;51.704;7.822;2023-06-22T02:49:02;18.17;;;15.15;;
46415;SDS011;32620;51.704;7.822;2023-06-22T02:51:28;18.83;;;15.25;;
46415;SDS011;32620;51.704;7.822;2023-06-22T02:53:56;21.50;;;16.35;;
46415;SDS011;32620;51.704;7.822;2023-06-22T02:56:22;20.00;;;17.10;;
46415;SDS011;32620;51.704;7.822;2023-06-22T02:58:50;21.52;;;17.52;;
46415;SDS011;32620;51.704;7.822;2023-06-22T03:01:16;18.80;;;16.83;;
46415;SDS011;32620;51.704;7.822;2023-06-22T03:03:41;19.02;;;17.10;;
46415;SDS011;32620;51.704;7.822;2023-06-22T03:06:07;20.25;;;16.55;;
46415;SDS011;32620;51.704;7.822;2023-06-22T03:08:33;20.90;;;17.10;;
46415;SDS011;32620;51.704;7.822;2023-06-22T03:10:59;19.05;;;16.15;;
46415;SDS011;32620;51.704;7.822;2023-06-22T03:13:24;21.23;;;17.08;;
46415;SDS011;32620;51.704;7.822;2023-06-22T03:15:50;20.13;;;18.02;;
46415;SDS011;32620;51.704;7.822;2023-06-22T03:18:16;21.50;;;17.85;;
46415;SDS011;32620;51.704;7.822;2023-06-22T03:20:41;21.20;;;16.88;;
46415;SDS011;32620;51.704;7.822;2023-06-22T03:23:07;21.83;;;16.88;;
46415;SDS011;32620;51.704;7.822;2023-06-22T03:25:32;22.35;;;17.95;;
46415;SDS011;32620;51.704;7.822;2023-06-22T03:27:58;20.55;;;17.42;;
46415;SDS011;32620;51.704;7.822;2023-06-22T03:30:25;21.48;;;18.15;;
46415;SDS011;32620;51.704;7.822;2023-06-22T03:32:51;21.48;;;17.88;;
46415;SDS011;32620;51.704;7.822;2023-06-22T03:35:16;22.27;;;18.48;;
46415;SDS011;32620;51.704;7.822;2023-06-22T03:37:42;21.45;;;17.23;;
46415;SDS011;32620;51.704;7.822;2023-06-22T03:40:08;21.50;;;18.42;;
46415;SDS011;32620;51.704;7.822;2023-06-22T03:42:34;21.02;;;17.45;;
46415;SDS011;32620;51.704;7.822;2023-06-22T03:45:01;20.75;;;18.40;;
46415;SDS011;32620;51.704;7.822;2023-06-22T03:47:28;24.08;;;18.38;;
46415;SDS011;32620;51.704;7.822;2023-06-22T03:49:54;22.90;;;19.25;;
46415;SDS011;32620;51.704;7.822;2023-06-22T03:52:20;25.95;;;18.38;;
46415;SDS011;32620;51.704;7.822;2023-06-22T03:54:47;23.38;;;18.85;;
46415;SDS011;32620;51.704;7.822;2023-06-22T03:57:13;26.10;;;18.77;;
46415;SDS011;32620;51.704;7.822;2023-06-22T03:59:38;22.35;;;17.92;;
46415;SDS011;32620;51.704;7.822;2023-06-22T04:02:04;22.25;;;17.60;;
46415;SDS011;32620;51.704;7.822;2023-06-22T04:04:29;21.10;;;18.48;;
46415;SDS011;32620;51.704;7.822;2023-06-22T04:06:55;25.20;;;18.67;;
46415;SDS011;32620;51.704;7.822;2023-06-22T04:09:21;22.38;;;18.73;;
46415;SDS011;32620;51.704;7.822;2023-06-22T04:11:46;20.80;;;18.42;;
46415;SDS011;32620;51.704;7.822;2023-06-22T04:14:12;21.75;;;18.25;;
46415;SDS011;32620;51.704;7.822;2023-06-22T04:16:38;21.23;;;18.20;;
46415;SDS011;32620;51.704;7.822;2023-06-22T04:19:03;21.40;;;18.33;;
46415;SDS011;32620;51.704;7.822;2023-06-22T04:21:29;21.33;;;18.25;;
46415;SDS011;32620;51.704;7.822;2023-06-22T04:23:54;21.63;;;18.27;;
46415;SDS011;32620;51.704;7.822;2023-06-22T04:26:20;19.80;;;17.33;;
46415;SDS011;32620;51.704;7.822;2023-06-22T04:28:46;21.10;;;17.52;;
46415;SDS011;32620;51.704;7.822;2023-06-22T04:31:16;21.70;;;18.45;;
46415;SDS011;32620;51.704;7.822;2023-06-22T04:33:44;21.48;;;18.55;;
46415;SDS011;32620;51.704;7.822;2023-06-22T04:36:10;22.02;;;17.98;;
46415;SDS011;32620;51.704;7.822;2023-06-22T04:38:38;24.35;;;18.85;;
46415;SDS011;32620;51.704;7.822;2023-06-22T04:41:04;23.40;;;18.55;;
46415;SDS011;32620;51.704;7.822;2023-06-22T04:43:30;21.05;;;18.00;;
46415;SDS011;32620;51.704;7.822;2023-06-22T04:45:57;22.40;;;18.48;;
46415;SDS011;32620;51.704;7.822;2023-06-22T04:48:28;21.33;;;18.03;;
46415;SDS011;32620;51.704;7.822;2023-06-22T04:50:57;21.80;;;19.45;;
46415;SDS011;32620;51.704;7.822;2023-06-22T04:53:28;21.35;;;17.83;;
46415;SDS011;32620;51.704;7.822;2023-06-22T04:55:54;22.27;;;19.13;;
46415;SDS011;32620;51.704;7.822;2023-06-22T04:58:20;21.67;;;18.75;;
46415;SDS011;32620;51.704;7.822;2023-06-22T05:00:46;20.33;;;18.23;;
46415;SDS011;32620;51.704;7.822;2023-06-22T05:03:12;20.33;;;17.65;;
46415;SDS011;32620;51.704;7.822;2023-06-22T05:05:38;20.70;;;18.52;;
46415;SDS011;32620;51.704;7.822;2023-06-22T05:08:04;20.15;;;17.70;;
46415;SDS011;32620;51.704;7.822;2023-06-22T05:10:31;21.90;;;18.98;;
46415;SDS011;32620;51.704;7.822;2023-06-22T05:12:57;24.17;;;19.63;;
46415;SDS011;32620;51.704;7.822;2023-06-22T05:15:23;19.50;;;17.40;;
46415;SDS011;32620;51.704;7.822;2023-06-22T05:17:53;21.45;;;18.90;;
46415;SDS011;32620;51.704;7.822;2023-06-22T05:20:18;20.58;;;18.35;;
46415;SDS011;32620;51.704;7.822;2023-06-22T05:22:44;19.48;;;17.50;;
46415;SDS011;32620;51.704;7.822;2023-06-22T05:25:10;20.73;;;16.70;;
46415;SDS011;32620;51.704;7.822;2023-06-22T05:27:36;22.13;;;18.98;;
46415;SDS011;32620;51.704;7.822;2023-06-22T05:30:06;20.58;;;18.42;;
46415;SDS011;32620;51.704;7.822;2023-06-22T05:32:32;20.95;;;18.45;;
46415;SDS011;32620;51.704;7.822;2023-06-22T05:34:58;23.27;;;18.90;;
46415;SDS011;32620;51.704;7.822;2023-06-22T05:37:24;21.55;;;19.17;;
46415;SDS011;32620;51.704;7.822;2023-06-22T05:39:49;22.67;;;20.08;;
46415;SDS011;32620;51.704;7.822;2023-06-22T05:42:15;25.02;;;20.48;;
46415;SDS011;32620;51.704;7.822;2023-06-22T05:44:41;24.90;;;20.33;;
46415;SDS011;32620;51.704;7.822;2023-06-22T05:47:07;22.60;;;20.20;;
46415;SDS011;32620;51.704;7.822;2023-06-22T05:49:32;26.33;;;20.50;;
46415;SDS011;32620;51.704;7.822;2023-06-22T05:51:58;23.27;;;20.20;;
46415;SDS011;32620;51.704;7.822;2023-06-22T05:54:24;22.90;;;20.00;;
46415;SDS011;32620;51.704;7.822;2023-06-22T05:56:52;24.48;;;21.85;;
46415;SDS011;32620;51.704;7.822;2023-06-22T05:59:17;23.92;;;20.98;;
46415;SDS011;32620;51.704;7.822;2023-06-22T06:01:43;25.83;;;20.60;;
46415;SDS011;32620;51.704;7.822;2023-06-22T06:04:09;22.80;;;20.15;;
46415;SDS011;32620;51.704;7.822;2023-06-22T06:06:34;23.42;;;20.60;;
46415;SDS011;32620;51.704;7.822;2023-06-22T06:09:02;23.45;;;19.20;;
46415;SDS011;32620;51.704;7.822;2023-06-22T06:11:29;23.15;;;19.75;;
46415;SDS011;32620;51.704;7.822;2023-06-22T06:13:54;24.25;;;19.98;;
46415;SDS011;32620;51.704;7.822;2023-06-22T06:16:20;23.48;;;19.33;;
46415;SDS011;32620;51.704;7.822;2023-06-22T06:18:46;19.98;;;17.92;;
46415;SDS011;32620;51.704;7.822;2023-06-22T06:21:13;23.05;;;18.17;;
46415;SDS011;32620;51.704;7.822;2023-06-22T06:23:39;25.50;;;18.05;;
46415;SDS011;32620;51.704;7.822;2023-06-22T06:26:04;21.30;;;18.80;;
46415;SDS011;32620;51.704;7.822;2023-06-22T06:28:32;22.80;;;18.33;;
46415;SDS011;32620;51.704;7.822;2023-06-22T06:30:58;19.08;;;16.77;;
46415;SDS011;32620;51.704;7.822;2023-06-22T06:33:23;23.67;;;17.95;;
46415;SDS011;32620;51.704;7.822;2023-06-22T06:35:49;20.58;;;17.83;;
46415;SDS011;32620;51.704;7.822;2023-06-22T06:38:15;21.80;;;18.85;;
46415;SDS011;32620;51.704;7.822;2023-06-22T06:40:40;25.75;;;20.27;;
46415;SDS011;32620;51.704;7.822;2023-06-22T06:43:06;25.50;;;21.48;;
46415;SDS011;32620;51.704;7.822;2023-06-22T06:45:32;26.52;;;21.88;;
46415;SDS011;32620;51.704;7.822;2023-06-22T06:47:59;23.98;;;21.00;;
46415;SDS011;32620;51.704;7.822;2023-06-22T06:50:25;24.65;;;22.08;;
46415;SDS011;32620;51.704;7.822;2023-06-22T06:52:51;25.58;;;20.88;;
46415;SDS011;32620;51.704;7.822;2023-06-22T06:55:16;31.35;;;23.33;;
46415;SDS011;32620;51.704;7.822;2023-06-22T06:57:43;27.23;;;22.77;;
46415;SDS011;32620;51.704;7.822;2023-06-22T07:00:13;28.92;;;22.52;;
46415;SDS011;32620;51.704;7.822;2023-06-22T07:02:40;25.70;;;23.00;;
46415;SDS011;32620;51.704;7.822;2023-06-22T07:05:07;28.73;;;23.67;;
46415;SDS011;32620;51.704;7.822;2023-06-22T07:07:33;27.10;;;23.90;;
46415;SDS011;32620;51.704;7.822;2023-06-22T07:09:59;28.42;;;23.98;;
46415;SDS011;32620;51.704;7.822;2023-06-22T07:12:25;28.83;;;23.83;;
46415;SDS011;32620;51.704;7.822;2023-06-22T07:14:52;29.08;;;25.13;;
46415;SDS011;32620;51.704;7.822;2023-06-22T07:17:18;32.00;;;24.67;;
46415;SDS011;32620;51.704;7.822;2023-06-22T07:19:45;27.08;;;23.17;;
46415;SDS011;32620;51.704;7.822;2023-06-22T07:22:10;29.17;;;23.48;;
46415;SDS011;32620;51.704;7.822;2023-06-22T07:24:36;25.77;;;22.75;;
46415;SDS011;32620;51.704;7.822;2023-06-22T07:27:02;28.25;;;21.95;;
46415;SDS011;32620;51.704;7.822;2023-06-22T07:29:28;25.92;;;23.15;;
46415;SDS011;32620;51.704;7.822;2023-06-22T07:31:54;29.80;;;23.60;;
46415;SDS011;32620;51.704;7.822;2023-06-22T07:34:21;30.95;;;23.80;;
46415;SDS011;32620;51.704;7.822;2023-06-22T07:36:47;30.33;;;22.83;;
46415;SDS011;32620;51.704;7.822;2023-06-22T07:39:12;30.65;;;24.05;;
46415;SDS011;32620;51.704;7.822;2023-06-22T07:41:38;25.90;;;22.98;;
46415;SDS011;32620;51.704;7.822;2023-06-22T07:44:05;29.92;;;25.13;;
46415;SDS011;32620;51.704;7.822;2023-06-22T07:46:31;31.90;;;26.75;;
46415;SDS011;32620;51.704;7.822;2023-06-22T07:48:57;29.40;;;26.10;;
46415;SDS011;32620;51.704;7.822;2023-06-22T07:51:23;30.08;;;25.70;;
46415;SDS011;32620;51.704;7.822;2023-06-22T07:53:49;32.65;;;26.30;;
46415;SDS011;32620;51.704;7.822;2023-06-22T07:56:15;28.70;;;23.83;;
46415;SDS011;32620;51.704;7.822;2023-06-22T07:58:44;28.95;;;25.85;;
46415;SDS011;32620;51.704;7.822;2023-06-22T08:01:11;31.88;;;26.35;;
46415;SDS011;32620;51.704;7.822;2023-06-22T08:03:36;32.42;;;25.38;;
46415;SDS011;32620;51.704;7.822;2023-06-22T08:06:02;29.17;;;24.48;;
46415;SDS011;32620;51.704;7.822;2023-06-22T08:08:28;29.38;;;23.98;;
46415;SDS011;32620;51.704;7.822;2023-06-22T08:10:53;25.70;;;22.88;;
46415;SDS011;32620;51.704;7.822;2023-06-22T08:13:19;26.08;;;22.60;;
46415;SDS011;32620;51.704;7.822;2023-06-22T08:15:45;28.70;;;24.20;;
46415;SDS011;32620;51.704;7.822;2023-06-22T08:18:10;23.92;;;21.40;;
46415;SDS011;32620;51.704;7.822;2023-06-22T08:20:36;28.48;;;21.98;;
46415;SDS011;32620;51.704;7.822;2023-06-22T08:23:02;24.83;;;21.35;;
46415;SDS011;32620;51.704;7.822;2023-06-22T08:25:31;21.55;;;18.85;;
46415;SDS011;32620;51.704;7.822;2023-06-22T08:27:57;22.80;;;20.33;;
46415;SDS011;32620;51.704;7.822;2023-06-22T08:30:23;23.77;;;20.10;;
46415;SDS011;32620;51.704;7.822;2023-06-22T08:32:49;21.85;;;19.63;;
46415;SDS011;32620;51.704;7.822;2023-06-22T08:35:14;22.25;;;18.90;;
46415;SDS011;32620;51.704;7.822;2023-06-22T08:37:40;24.02;;;21.20;;
46415;SDS011;32620;51.704;7.822;2023-06-22T08:40:06;25.67;;;20.67;;
46415;SDS011;32620;51.704;7.822;2023-06-22T08:42:34;22.48;;;20.20;;
46415;SDS011;32620;51.704;7.822;2023-06-22T08:45:00;22.95;;;19.83;;
46415;SDS011;32620;51.704;7.822;2023-06-22T08:47:27;25.05;;;19.45;;
46415;SDS011;32620;51.704;7.822;2023-06-22T08:49:53;21.60;;;19.08;;
46415;SDS011;32620;51.704;7.822;2023-06-22T08:52:18;23.40;;;20.92;;
46415;SDS011;32620;51.704;7.822;2023-06-22T08:54:45;25.17;;;20.08;;
46415;SDS011;32620;51.704;7.822;2023-06-22T08:57:10;26.25;;;20.15;;
46415;SDS011;32620;51.704;7.822;2023-06-22T08:59:36;22.00;;;18.83;;
46415;SDS011;32620;51.704;7.822;2023-06-22T09:02:02;19.45;;;17.05;;
46415;SDS011;32620;51.704;7.822;2023-06-22T09:04:27;17.40;;;15.70;;
46415;SDS011;32620;51.704;7.822;2023-06-22T09:06:53;14.77;;;13.25;;
46415;SDS011;32620;51.704;7.822;2023-06-22T09:09:18;16.52;;;14.85;;
46415;SDS011;32620;51.704;7.822;2023-06-22T09:11:46;14.38;;;12.98;;
46415;SDS011;32620;51.704;7.822;2023-06-22T09:14:12;14.55;;;12.75;;
46415;SDS011;32620;51.704;7.822;2023-06-22T09:16:37;14.05;;;12.80;;
46415;SDS011;32620;51.704;7.822;2023-06-22T09:19:03;13.80;;;12.45;;
46415;SDS011;32620;51.704;7.822;2023-06-22T09:21:29;14.77;;;11.98;;
46415;SDS011;32620;51.704;7.822;2023-06-22T09:23:54;12.02;;;10.98;;
46415;SDS011;32620;51.704;7.822;2023-06-22T09:26:20;14.05;;;12.57;;
46415;SDS011;32620;51.704;7.822;2023-06-22T09:28:47;15.85;;;13.32;;
46415;SDS011;32620;51.704;7.822;2023-06-22T09:31:13;13.70;;;12.45;;
46415;SDS011;32620;51.704;7.822;2023-06-22T09:33:39;12.18;;;11.05;;
46415;SDS011;32620;51.704;7.822;2023-06-22T09:36:06;14.60;;;11.15;;
46415;SDS011;32620;51.704;7.822;2023-06-22T09:38:36;11.95;;;10.52;;
46415;SDS011;32620;51.704;7.822;2023-06-22T09:41:02;11.07;;;9.98;;
46415;SDS011;32620;51.704;7.822;2023-06-22T09:43:28;11.45;;;10.20;;
46415;SDS011;32620;51.704;7.822;2023-06-22T09:45:54;12.88;;;10.88;;
46415;SDS011;32620;51.704;7.822;2023-06-22T09:48:20;11.75;;;9.55;;
46415;SDS011;32620;51.704;7.822;2023-06-22T09:50:46;10.50;;;9.52;;
46415;SDS011;32620;51.704;7.822;2023-06-22T09:53:11;12.23;;;11.02;;
46415;SDS011;32620;51.704;7.822;2023-06-22T09:55:37;12.00;;;10.40;;
46415;SDS011;32620;51.704;7.822;2023-06-22T09:58:02;15.15;;;12.65;;
46415;SDS011;32620;51.704;7.822;2023-06-22T10:00:28;13.32;;;11.98;;
46415;SDS011;32620;51.704;7.822;2023-06-22T10:02:53;14.32;;;12.98;;
46415;SDS011;32620;51.704;7.822;2023-06-22T10:05:20;13.27;;;12.07;;
46415;SDS011;32620;51.704;7.822;2023-06-22T10:07:46;14.68;;;13.35;;
46415;SDS011;32620;51.704;7.822;2023-06-22T10:10:12;14.80;;;13.30;;
46415;SDS011;32620;51.704;7.822;2023-06-22T10:12:41;12.07;;;10.98;;
46415;SDS011;32620;51.704;7.822;2023-06-22T10:15:08;11.10;;;9.95;;
46415;SDS011;32620;51.704;7.822;2023-06-22T10:17:34;13.10;;;11.93;;
46415;SDS011;32620;51.704;7.822;2023-06-22T10:20:00;11.98;;;10.82;;
46415;SDS011;32620;51.704;7.822;2023-06-22T10:22:26;11.70;;;10.60;;
46415;SDS011;32620;51.704;7.822;2023-06-22T10:24:51;11.88;;;10.68;;
46415;SDS011;32620;51.704;7.822;2023-06-22T10:27:17;10.50;;;9.50;;
46415;SDS011;32620;51.704;7.822;2023-06-22T10:29:43;9.70;;;8.63;;
46415;SDS011;32620;51.704;7.822;2023-06-22T10:32:09;8.00;;;7.25;;
46415;SDS011;32620;51.704;7.822;2023-06-22T10:34:34;8.75;;;7.72;;
46415;SDS011;32620;51.704;7.822;2023-06-22T10:37:00;9.30;;;8.50;;
46415;SDS011;32620;51.704;7.822;2023-06-22T10:39:26;9.77;;;8.88;;
46415;SDS011;32620;51.704;7.822;2023-06-22T10:41:51;10.52;;;8.95;;
46415;SDS011;32620;51.704;7.822;2023-06-22T10:44:18;9.57;;;8.57;;
46415;SDS011;32620;51.704;7.822;2023-06-22T10:46:43;8.90;;;7.97;;
46415;SDS011;32620;51.704;7.822;2023-06-22T10:49:09;9.55;;;8.05;;
46415;SDS011;32620;51.704;7.822;2023-06-22T10:51:34;9.63;;;7.63;;
46415;SDS011;32620;51.704;7.822;2023-06-22T10:54:00;8.73;;;7.93;;
46415;SDS011;32620;51.704;7.822;2023-06-22T10:56:26;8.90;;;8.00;;
46415;SDS011;32620;51.704;7.822;2023-06-22T10:58:51;8.65;;;7.75;;
46415;SDS011;32620;51.704;7.822;2023-06-22T11:01:17;8.30;;;7.45;;
46415;SDS011;32620;51.704;7.822;2023-06-22T11:03:42;8.65;;;7.85;;
46415;SDS011;32620;51.704;7.822;2023-06-22T11:06:08;12.93;;;8.63;;
46415;SDS011;32620;51.704;7.822;2023-06-22T11:08:33;10.65;;;7.53;;
46415;SDS011;32620;51.704;7.822;2023-06-22T11:10:59;12.55;;;8.27;;
46415;SDS011;32620;51.704;7.822;2023-06-22T11:13:24;8.43;;;7.50;;
46415;SDS011;32620;51.704;7.822;2023-06-22T11:15:50;8.98;;;7.47;;
46415;SDS011;32620;51.704;7.822;2023-06-22T11:18:16;10.63;;;8.75;;
46415;SDS011;32620;51.704;7.822;2023-06-22T11:20:41;8.88;;;7.97;;
46415;SDS011;32620;51.704;7.822;2023-06-22T11:23:07;9.18;;;8.30;;
46415;SDS011;32620;51.704;7.822;2023-06-22T11:25:33;9.07;;;8.18;;
46415;SDS011;32620;51.704;7.822;2023-06-22T11:28:03;8.75;;;7.90;;
46415;SDS011;32620;51.704;7.822;2023-06-22T11:30:29;9.93;;;8.85;;
46415;SDS011;32620;51.704;7.822;2023-06-22T11:32:57;11.18;;;8.95;;
46415;SDS011;32620;51.704;7.822;2023-06-22T11:35:23;11.32;;;9.07;;
46415;SDS011;32620;51.704;7.822;2023-06-22T11:37:49;9.93;;;8.93;;
46415;SDS011;32620;51.704;7.822;2023-06-22T11:40:15;12.35;;;9.65;;
46415;SDS011;32620;51.704;7.822;2023-06-22T11:42:42;11.40;;;9.70;;
46415;SDS011;32620;51.704;7.822;2023-06-22T11:45:08;10.45;;;9.45;;
46415;SDS011;32620;51.704;7.822;2023-06-22T11:47:34;12.55;;;10.80;;
46415;SDS011;32620;51.704;7.822;2023-06-22T11:49:59;12.35;;;10.98;;
46415;SDS011;32620;51.704;7.822;2023-06-22T11:52:25;13.05;;;11.07;;
46415;SDS011;32620;51.704;7.822;2023-06-22T11:54:52;16.20;;;11.95;;
46415;SDS011;32620;51.704;7.822;2023-06-22T11:57:17;18.20;;;12.50;;
46415;SDS011;32620;51.704;7.822;2023-06-22T11:59:43;11.98;;;10.77;;
46415;SDS011;32620;51.704;7.822;2023-06-22T12:02:09;18.42;;;13.55;;
46415;SDS011;32620;51.704;7.822;2023-06-22T12:04:34;15.85;;;13.00;;
46415;SDS011;32620;51.704;7.822;2023-06-22T12:07:00;14.23;;;12.73;;
46415;SDS011;32620;51.704;7.822;2023-06-22T12:09:25;17.20;;;15.10;;
46415;SDS011;32620;51.704;7.822;2023-06-22T12:11:51;17.88;;;14.85;;
46415;SDS011;32620;51.704;7.822;2023-06-22T12:14:17;17.00;;;15.02;;
46415;SDS011;32620;51.704;7.822;2023-06-22T12:16:42;20.13;;;16.42;;
46415;SDS011;32620;51.704;7.822;2023-06-22T12:19:09;20.05;;;16.58;;
46415;SDS011;32620;51.704;7.822;2023-06-22T12:21:35;17.90;;;15.85;;
46415;SDS011;32620;51.704;7.822;2023-06-22T12:24:01;19.75;;;16.85;;
46415;SDS011;32620;51.704;7.822;2023-06-22T12:26:27;19.08;;;17.00;;
46415;SDS011;32620;51.704;7.822;2023-06-22T12:28:53;22.40;;;18.92;;
46415;SDS011;32620;51.704;7.822;2023-06-22T12:31:18;26.17;;;19.52;;
46415;SDS011;32620;51.704;7.822;2023-06-22T12:33:44;26.77;;;20.55;;
46415;SDS011;32620;51.704;7.822;2023-06-22T12:36:09;21.77;;;19.50;;
46415;SDS011;32620;51.704;7.822;2023-06-22T12:38:35;25.17;;;20.40;;
46415;SDS011;32620;51.704;7.822;2023-06-22T12:41:00;25.10;;;20.50;;
46415;SDS011;32620;51.704;7.822;2023-06-22T12:43:26;24.35;;;21.52;;
46415;SDS011;32620;51.704;7.822;2023-06-22T12:45:51;27.40;;;21.75;;
46415;SDS011;32620;51.704;7.822;2023-06-22T12:48:18;34.15;;;23.58;;
46415;SDS011;32620;51.704;7.822;2023-06-22T12:50:44;29.17;;;22.48;;
46415;SDS011;32620;51.704;7.822;2023-06-22T12:53:10;28.17;;;22.10;;
46415;SDS011;32620;51.704;7.822;2023-06-22T12:55:36;27.35;;;22.00;;
46415;SDS011;32620;51.704;7.822;2023-06-22T12:58:01;27.58;;;21.65;;
46415;SDS011;32620;51.704;7.822;2023-06-22T13:00:27;27.75;;;21.05;;
46415;SDS011;32620;51.704;7.822;2023-06-22T13:02:52;25.20;;;21.30;;
46415;SDS011;32620;51.704;7.822;2023-06-22T13:05:18;32.42;;;22.30;;
46415;SDS011;32620;51.704;7.822;2023-06-22T13:07:44;25.40;;;21.13;;
46415;SDS011;32620;51.704;7.822;2023-06-22T13:10:10;26.92;;;21.60;;
46415;SDS011;32620;51.704;7.822;2023-06-22T13:12:36;27.20;;;21.55;;
46415;SDS011;32620;51.704;7.822;2023-06-22T13:15:01;32.45;;;20.80;;
46415;SDS011;32620;51.704;7.822;2023-06-22T13:17:28;34.72;;;21.73;;
46415;SDS011;32620;51.704;7.822;2023-06-22T13:19:54;27.88;;;21.77;;
46415;SDS011;32620;51.704;7.822;2023-06-22T13:22:27;27.60;;;22.52;;
46415;SDS011;32620;51.704;7.822;2023-06-22T13:24:56;39.58;;;22.15;;
46415;SDS011;32620;51.704;7.822;2023-06-22T13:27:22;32.47;;;21.70;;
46415;SDS011;32620;51.704;7.822;2023-06-22T13:29:48;24.77;;;21.35;;
46415;SDS011;32620;51.704;7.822;2023-06-22T13:32:14;25.15;;;22.25;;
46415;SDS011;32620;51.704;7.822;2023-06-22T13:34:40;26.85;;;22.98;;
46415;SDS011;32620;51.704;7.822;2023-06-22T13:37:07;30.25;;;24.30;;
46415;SDS011;32620;51.704;7.822;2023-06-22T13:39:32;28.63;;;24.73;;
46415;SDS011;32620;51.704;7.822;2023-06-22T13:41:58;31.92;;;24.15;;
46415;SDS011;32620;51.704;7.822;2023-06-22T13:44:23;27.42;;;24.15;;
46415;SDS011;32620;51.704;7.822;2023-06-22T13:46:53;27.67;;;24.83;;
46415;SDS011;32620;51.704;7.822;2023-06-22T13:49:19;32.25;;;25.88;;
46415;SDS011;32620;51.704;7.822;2023-06-22T13:51:46;30.98;;;26.95;;
46415;SDS011;32620;51.704;7.822;2023-06-22T13:54:13;31.58;;;26.88;;
46415;SDS011;32620;51.704;7.822;2023-06-22T13:56:39;29.75;;;26.65;;
46415;SDS011;32620;51.704;7.822;2023-06-22T13:59:04;32.10;;;26.45;;
46415;SDS011;32620;51.704;7.822;2023-06-22T14:01:31;29.58;;;26.45;;
46415;SDS011;32620;51.704;7.822;2023-06-22T14:03:57;30.20;;;26.58;;
46415;SDS011;32620;51.704;7.822;2023-06-22T14:06:22;29.65;;;26.45;;
46415;SDS011;32620;51.704;7.822;2023-06-22T14:08:48;30.05;;;26.83;;
46415;SDS011;32620;51.704;7.822;2023-06-22T14:11:14;30.13;;;25.30;;
46415;SDS011;32620;51.704;7.822;2023-06-22T14:13:40;28.80;;;25.75;;
46415;SDS011;32620;51.704;7.822;2023-06-22T14:16:07;30.25;;;25.98;;
46415;SDS011;32620;51.704;7.822;2023-06-22T14:18:33;29.38;;;26.42;;
46415;SDS011;32620;51.704;7.822;2023-06-22T14:20:58;31.17;;;27.35;;